createdAt,value
2023-04-15T00:01:56.224Z,3.73
2023-04-15T00:04:24.100Z,2.60
2023-04-15T00:06:53.659Z,4.80
2023-04-15T00:09:21.545Z,2.93
2023-04-15T00:11:49.491Z,6.10
2023-04-15T00:14:18.645Z,4.10
2023-04-15T00:16:46.517Z,3.43
2023-04-15T00:19:14.356Z,1.83
2023-04-15T00:21:42.164Z,2.83
2023-04-15T00:24:09.947Z,2.50
2023-04-15T00:26:37.753Z,3.63
2023-04-15T00:29:05.633Z,3.63
2023-04-15T00:31:34.747Z,1.90
2023-04-15T00:34:03.626Z,2.10
2023-04-15T00:36:31.710Z,5.30
2023-04-15T00:38:59.755Z,3.17
2023-04-15T00:41:27.629Z,3.07
2023-04-15T00:43:55.459Z,2.90
2023-04-15T00:46:24.065Z,3.00
2023-04-15T00:48:53.600Z,2.30
2023-04-15T00:51:21.405Z,3.37
2023-04-15T00:53:49.185Z,2.53
2023-04-15T00:56:17.155Z,1.80
2023-04-15T00:58:44.966Z,2.87
2023-04-15T01:01:12.794Z,2.73
2023-04-15T01:03:41.467Z,2.43
2023-04-15T01:06:11.441Z,2.90
2023-04-15T01:08:39.245Z,5.10
2023-04-15T01:11:07.105Z,1.87
2023-04-15T01:13:35.608Z,2.93
2023-04-15T01:16:03.940Z,4.50
2023-04-15T01:18:32.758Z,2.27
2023-04-15T01:21:03.651Z,1.93
2023-04-15T01:23:33.964Z,2.70
2023-04-15T01:26:03.993Z,3.43
2023-04-15T01:28:32.196Z,4.70
2023-04-15T01:31:10.715Z,1.70
2023-04-15T01:33:39.212Z,3.40
2023-04-15T01:36:09.645Z,3.30
2023-04-15T01:38:38.120Z,2.20
2023-04-15T01:41:08.155Z,4.00
2023-04-15T01:43:37.060Z,3.80
2023-04-15T01:46:05.146Z,4.80
2023-04-15T01:48:33.460Z,3.30
2023-04-15T01:51:01.341Z,2.60
2023-04-15T01:53:29.442Z,2.43
2023-04-15T01:55:57.258Z,5.37
2023-04-15T01:58:27.190Z,2.43
2023-04-15T02:00:55.036Z,6.23
2023-04-15T02:03:23.301Z,3.20
2023-04-15T02:05:51.582Z,2.13
2023-04-15T02:08:19.367Z,2.90
2023-04-15T02:10:47.538Z,3.17
2023-04-15T02:13:16.957Z,4.73
2023-04-15T02:15:49.561Z,2.23
2023-04-15T02:18:17.781Z,2.00
2023-04-15T02:20:46.895Z,1.50
2023-04-15T02:23:15.070Z,2.33
2023-04-15T02:25:42.836Z,2.40
2023-04-15T02:28:21.503Z,2.50
2023-04-15T02:30:52.508Z,2.63
2023-04-15T02:33:20.860Z,2.87
2023-04-15T02:35:48.682Z,2.50
2023-04-15T02:38:17.899Z,3.93
2023-04-15T02:40:46.160Z,3.10
2023-04-15T02:43:13.954Z,2.30
2023-04-15T02:45:43.443Z,2.93
2023-04-15T02:48:12.667Z,2.10
2023-04-15T02:50:40.793Z,3.03
2023-04-15T02:53:08.752Z,3.40
2023-04-15T02:55:36.562Z,3.73
2023-04-15T02:58:04.582Z,2.67
2023-04-15T03:00:32.400Z,1.60
2023-04-15T03:03:03.401Z,1.83
2023-04-15T03:05:32.773Z,1.73
2023-04-15T03:08:01.066Z,2.20
2023-04-15T03:10:29.003Z,1.90
2023-04-15T03:12:56.827Z,3.20
2023-04-15T03:15:24.716Z,2.10
2023-04-15T03:17:52.620Z,2.17
2023-04-15T03:20:20.870Z,2.10
2023-04-15T03:22:50.058Z,2.17
2023-04-15T03:25:18.126Z,3.20
2023-04-15T03:27:46.028Z,2.10
2023-04-15T03:30:14.502Z,5.23
2023-04-15T03:32:42.288Z,2.83
2023-04-15T03:35:10.631Z,3.10
2023-04-15T03:37:38.410Z,1.90
2023-04-15T03:40:09.754Z,2.30
2023-04-15T03:42:37.561Z,2.27
2023-04-15T03:45:06.530Z,3.40
2023-04-15T03:47:34.424Z,2.20
2023-04-15T03:50:02.266Z,3.77
2023-04-15T03:52:30.084Z,1.87
2023-04-15T03:54:57.920Z,2.27
2023-04-15T03:57:27.360Z,2.70
2023-04-15T03:59:55.331Z,2.07
2023-04-15T04:02:23.273Z,2.03
2023-04-15T04:04:51.408Z,2.30
2023-04-15T04:07:19.570Z,2.10
2023-04-15T04:09:47.530Z,2.30
2023-04-15T04:12:15.570Z,2.27
2023-04-15T04:14:44.757Z,6.17
2023-04-15T04:17:12.591Z,5.00
2023-04-15T04:19:40.422Z,2.43
2023-04-15T04:22:08.199Z,3.07
2023-04-15T04:24:36.027Z,4.43
2023-04-15T04:27:03.817Z,2.57
2023-04-15T04:29:31.669Z,3.93
2023-04-15T04:32:00.809Z,3.30
2023-04-15T04:34:28.587Z,2.83
2023-04-15T04:36:56.627Z,1.70
2023-04-15T04:39:24.567Z,3.63
2023-04-15T04:41:53.118Z,1.83
2023-04-15T04:44:20.928Z,2.17
2023-04-15T04:46:48.735Z,2.07
2023-04-15T04:49:17.876Z,6.80
2023-04-15T04:51:47.008Z,2.83
2023-04-15T04:54:14.790Z,2.70
2023-04-15T04:56:42.596Z,4.80
2023-04-15T04:59:10.449Z,2.97
2023-04-15T05:01:38.458Z,4.97
2023-04-15T05:04:07.787Z,6.30
2023-04-15T05:06:37.318Z,3.97
2023-04-15T05:09:05.196Z,3.40
2023-04-15T05:11:32.960Z,3.27
2023-04-15T05:14:02.152Z,2.80
2023-04-15T05:16:29.940Z,4.40
2023-04-15T05:18:57.727Z,5.30
2023-04-15T05:21:25.875Z,4.27
2023-04-15T05:23:55.004Z,7.53
2023-04-15T05:26:27.470Z,4.93
2023-04-15T05:28:55.502Z,3.13
2023-04-15T05:31:23.376Z,4.10
2023-04-15T05:33:51.358Z,3.97
2023-04-15T05:36:19.148Z,3.30
2023-04-15T05:38:46.972Z,5.10
2023-04-15T05:41:19.589Z,5.50
2023-04-15T05:43:47.738Z,3.80
2023-04-15T05:46:15.902Z,3.43
2023-04-15T05:48:43.752Z,4.73
2023-04-15T05:51:11.672Z,4.00
2023-04-15T05:53:41.145Z,3.20
2023-04-15T05:56:09.066Z,2.60
2023-04-15T05:58:38.259Z,2.53
2023-04-15T06:01:06.420Z,3.60
2023-04-15T06:03:34.455Z,5.07
2023-04-15T06:06:02.489Z,5.30
2023-04-15T06:08:30.335Z,2.90
2023-04-15T06:10:59.366Z,3.60
2023-04-15T06:13:27.163Z,5.33
2023-04-15T06:15:56.305Z,3.23
2023-04-15T06:18:24.170Z,3.20
2023-04-15T06:20:52.308Z,4.50
2023-04-15T06:23:20.080Z,3.03
2023-04-15T06:25:47.916Z,3.03
2023-04-15T06:28:15.693Z,3.43
2023-04-15T06:30:43.537Z,2.87
2023-04-15T06:33:13.285Z,5.40
2023-04-15T06:35:41.067Z,5.13
2023-04-15T06:38:08.860Z,3.97
2023-04-15T06:40:36.766Z,2.63
2023-04-15T06:43:04.977Z,2.80
2023-04-15T06:45:33.145Z,4.03
2023-04-15T06:48:00.974Z,3.30
2023-04-15T06:50:30.186Z,2.97
2023-04-15T06:52:58.238Z,3.60
2023-04-15T06:55:26.046Z,3.40
2023-04-15T06:57:53.824Z,3.70
2023-04-15T07:00:22.321Z,2.83
2023-04-15T07:02:50.229Z,3.20
2023-04-15T07:05:18.960Z,6.37
2023-04-15T07:07:48.089Z,4.47
2023-04-15T07:10:16.077Z,4.50
2023-04-15T07:12:44.919Z,4.23
2023-04-15T07:15:13.174Z,2.60
2023-04-15T07:17:41.446Z,5.20
2023-04-15T07:20:10.293Z,2.67
2023-04-15T07:22:38.160Z,2.37
2023-04-15T07:25:08.973Z,2.90
2023-04-15T07:27:36.829Z,5.83
2023-04-15T07:30:05.086Z,5.23
2023-04-15T07:32:32.965Z,3.20
2023-04-15T07:35:01.073Z,3.03
2023-04-15T07:37:29.638Z,3.30
2023-04-15T07:39:57.473Z,3.63
2023-04-15T07:42:27.032Z,5.30
2023-04-15T07:44:54.889Z,3.03
2023-04-15T07:47:22.981Z,4.10
2023-04-15T07:49:51.468Z,2.87
2023-04-15T07:52:19.599Z,3.87
2023-04-15T07:54:47.378Z,2.60
2023-04-15T07:57:15.229Z,3.93
2023-04-15T07:59:44.367Z,4.27
2023-04-15T08:02:12.716Z,3.90
2023-04-15T08:04:40.773Z,6.20
2023-04-15T08:07:08.726Z,3.97
2023-04-15T08:09:36.983Z,4.00
2023-04-15T08:12:05.239Z,3.27
2023-04-15T08:14:33.039Z,2.90
2023-04-15T08:17:02.215Z,4.87
2023-04-15T08:19:30.235Z,4.03
2023-04-15T08:21:58.044Z,5.13
2023-04-15T08:24:27.324Z,5.23
2023-04-15T08:26:55.095Z,3.27
2023-04-15T08:29:22.911Z,3.43
2023-04-15T08:31:50.758Z,4.23
2023-04-15T08:34:19.946Z,3.27
2023-04-15T08:36:47.727Z,3.57
2023-04-15T08:39:15.501Z,2.97
2023-04-15T08:41:48.352Z,5.60
2023-04-15T08:44:16.512Z,7.10
2023-04-15T08:46:44.629Z,3.83
2023-04-15T08:49:13.777Z,2.73
2023-04-15T08:51:43.379Z,5.10
2023-04-15T08:54:11.586Z,3.20
2023-04-15T08:56:40.586Z,3.00
2023-04-15T08:59:08.733Z,4.30
2023-04-15T09:01:38.583Z,4.03
2023-04-15T09:04:08.205Z,6.20
2023-04-15T09:06:36.777Z,3.97
2023-04-15T09:09:06.880Z,3.83
2023-04-15T09:11:35.615Z,4.00
2023-04-15T09:14:03.694Z,6.10
2023-04-15T09:16:31.817Z,5.43
2023-04-15T09:18:59.779Z,3.70
2023-04-15T09:21:27.700Z,3.23
2023-04-15T09:23:57.475Z,5.03
2023-04-15T09:26:37.762Z,3.47
2023-04-15T09:29:07.693Z,5.37
2023-04-15T09:31:35.590Z,4.53
2023-04-15T09:34:03.863Z,3.33
2023-04-15T09:36:41.242Z,2.70
2023-04-15T09:39:09.019Z,2.67
2023-04-15T09:41:38.174Z,3.03
2023-04-15T09:44:06.524Z,3.73
2023-04-15T09:46:43.988Z,3.33
2023-04-15T09:49:12.819Z,2.70
2023-04-15T09:51:41.305Z,2.73
2023-04-15T09:54:10.000Z,3.90
2023-04-15T09:56:42.086Z,4.50
2023-04-15T09:59:10.294Z,4.07
2023-04-15T10:01:39.184Z,4.30
2023-04-15T10:04:07.717Z,2.40
2023-04-15T10:06:36.945Z,3.43
2023-04-15T10:09:05.020Z,3.50
2023-04-15T10:11:34.651Z,3.00
2023-04-15T10:14:04.456Z,4.33
2023-04-15T10:16:34.101Z,5.40
2023-04-15T10:19:04.392Z,2.87
2023-04-15T10:21:32.256Z,4.73
2023-04-15T10:24:01.792Z,6.10
2023-04-15T10:26:30.946Z,3.40
2023-04-15T10:29:00.197Z,6.40
2023-04-15T10:31:30.727Z,3.43
2023-04-15T10:33:59.176Z,4.10
2023-04-15T10:36:27.570Z,3.57
2023-04-15T10:38:55.500Z,3.53
2023-04-15T10:41:24.865Z,2.73
2023-04-15T10:43:54.154Z,4.17
2023-04-15T10:46:35.260Z,2.67
2023-04-15T10:49:10.963Z,9.27
2023-04-15T10:51:41.635Z,8.23
2023-04-15T10:54:14.421Z,4.90
2023-04-15T10:56:43.703Z,3.73
2023-04-15T10:59:12.195Z,6.00
2023-04-15T11:01:54.223Z,2.93
2023-04-15T11:04:55.468Z,2.63
2023-04-15T11:07:37.040Z,4.60
2023-04-15T11:10:05.874Z,5.57
2023-04-15T11:12:36.821Z,3.67
2023-04-15T11:15:30.166Z,4.50
2023-04-15T11:17:58.602Z,3.27
2023-04-15T11:20:28.876Z,4.80
2023-04-15T11:23:14.018Z,3.40
2023-04-15T11:25:44.316Z,3.70
2023-04-15T11:28:13.372Z,5.33
2023-04-15T11:30:43.104Z,5.23
2023-04-15T11:33:13.961Z,3.80
2023-04-15T11:35:43.934Z,4.20
2023-04-15T11:38:14.288Z,2.80
2023-04-15T11:40:45.308Z,4.23
2023-04-15T11:43:16.807Z,5.33
2023-04-15T11:45:55.832Z,7.20
2023-04-15T11:48:25.629Z,3.13
2023-04-15T11:50:59.681Z,4.23
2023-04-15T11:53:38.485Z,3.50
2023-04-15T11:56:07.445Z,5.23
2023-04-15T11:58:36.346Z,3.87
2023-04-15T12:01:04.736Z,5.87
2023-04-15T12:03:38.933Z,4.60
2023-04-15T12:06:19.540Z,4.40
2023-04-15T12:09:02.614Z,3.87
2023-04-15T12:11:35.807Z,4.87
2023-04-15T12:14:10.534Z,4.93
2023-04-15T12:16:48.989Z,4.17
2023-04-15T12:19:20.127Z,3.80
2023-04-15T12:21:50.277Z,4.67
2023-04-15T12:24:22.616Z,8.13
2023-04-15T12:26:52.392Z,8.17
2023-04-15T12:29:21.094Z,4.10
2023-04-15T12:31:51.558Z,4.57
2023-04-15T12:34:20.766Z,3.77
2023-04-15T12:36:49.989Z,4.07
2023-04-15T12:39:17.869Z,5.17
2023-04-15T12:41:45.632Z,3.30
2023-04-15T12:44:13.456Z,6.60
2023-04-15T12:46:41.460Z,3.80
2023-04-15T12:49:10.190Z,4.30
2023-04-15T12:51:37.987Z,3.43
2023-04-15T12:54:07.144Z,3.43
2023-04-15T12:56:34.977Z,4.23
2023-04-15T12:59:02.755Z,3.70
2023-04-15T13:01:30.589Z,6.80
2023-04-15T13:03:58.521Z,9.00
2023-04-15T13:06:26.459Z,4.00
2023-04-15T13:08:58.266Z,3.90
2023-04-15T13:11:30.808Z,3.63
2023-04-15T13:13:59.018Z,3.07
2023-04-15T13:16:26.896Z,4.27
2023-04-15T13:18:54.717Z,3.73
2023-04-15T13:21:22.670Z,8.53
2023-04-15T13:23:51.055Z,5.30
2023-04-15T13:26:18.890Z,5.43
2023-04-15T13:28:48.046Z,3.80
2023-04-15T13:31:16.082Z,3.50
2023-04-15T13:33:43.952Z,4.57
2023-04-15T13:36:11.734Z,2.80
2023-04-15T13:38:39.621Z,5.70
2023-04-15T13:41:07.471Z,8.00
2023-04-15T13:43:35.648Z,4.07
2023-04-15T13:46:05.336Z,7.40
2023-04-15T13:48:33.130Z,3.90
2023-04-15T13:51:00.976Z,2.97
2023-04-15T13:53:37.799Z,4.20
2023-04-15T13:56:07.627Z,7.93
2023-04-15T13:58:35.466Z,6.70
2023-04-15T14:01:06.173Z,4.40
2023-04-15T14:03:35.869Z,5.33
2023-04-15T14:06:04.275Z,3.50
2023-04-15T14:08:32.288Z,3.43
2023-04-15T14:11:00.137Z,3.30
2023-04-15T14:13:28.068Z,4.60
2023-04-15T14:15:56.007Z,3.83
2023-04-15T14:18:25.206Z,3.90
2023-04-15T14:20:53.277Z,9.47
2023-04-15T14:23:21.232Z,2.40
2023-04-15T14:25:49.075Z,3.50
2023-04-15T14:28:17.100Z,3.70
2023-04-15T14:30:45.129Z,4.93
2023-04-15T14:33:13.050Z,2.83
2023-04-15T14:35:42.210Z,3.77
2023-04-15T14:38:11.358Z,3.17
2023-04-15T14:40:39.485Z,3.50
2023-04-15T14:43:07.358Z,3.20
2023-04-15T14:45:36.330Z,7.83
2023-04-15T14:48:06.382Z,3.97
2023-04-15T14:50:34.423Z,4.47
2023-04-15T14:53:03.731Z,3.70
2023-04-15T14:55:31.547Z,4.80
2023-04-15T14:57:59.340Z,7.23
2023-04-15T15:00:27.283Z,4.93
2023-04-15T15:02:55.220Z,3.13
2023-04-15T15:05:23.772Z,4.27
2023-04-15T15:07:51.682Z,2.63
2023-04-15T15:10:32.077Z,3.63
2023-04-15T15:13:11.354Z,5.80
2023-04-15T15:15:39.987Z,6.77
2023-04-15T15:18:08.200Z,5.00
2023-04-15T15:20:36.384Z,2.43
2023-04-15T15:23:04.259Z,4.03
2023-04-15T15:25:33.428Z,3.43
2023-04-15T15:28:01.293Z,3.20
2023-04-15T15:30:29.105Z,3.67
2023-04-15T15:32:57.023Z,3.60
2023-04-15T15:35:25.841Z,3.07
2023-04-15T15:37:54.878Z,3.10
2023-04-15T15:40:22.723Z,4.93
2023-04-15T15:42:51.931Z,3.70
2023-04-15T15:45:19.940Z,3.40
2023-04-15T15:47:47.826Z,2.57
2023-04-15T15:50:15.719Z,4.67
2023-04-15T15:52:43.644Z,3.93
2023-04-15T15:55:11.558Z,5.10
2023-04-15T15:57:39.334Z,4.00
2023-04-15T16:00:12.869Z,3.70
2023-04-15T16:05:12.348Z,4.90
2023-04-15T16:07:40.144Z,4.27
2023-04-15T16:10:09.010Z,3.23
2023-04-15T16:12:36.943Z,3.97
2023-04-15T16:15:05.432Z,5.80
2023-04-15T16:17:34.786Z,3.80
2023-04-15T16:20:05.410Z,4.00
2023-04-15T16:22:33.724Z,3.40
2023-04-15T16:25:01.775Z,2.80
2023-04-15T16:27:29.749Z,7.80
2023-04-15T16:29:57.509Z,3.40
2023-04-15T16:32:25.327Z,3.93
2023-04-15T16:34:54.912Z,4.67
2023-04-15T16:37:22.708Z,4.03
2023-04-15T16:39:50.527Z,3.90
2023-04-15T16:42:18.447Z,5.23
2023-04-15T16:44:46.232Z,2.63
2023-04-15T16:47:13.978Z,4.63
2023-04-15T16:49:41.740Z,5.30
2023-04-15T16:52:10.926Z,4.97
2023-04-15T16:54:41.291Z,4.47
2023-04-15T16:57:09.225Z,3.53
2023-04-15T16:59:37.096Z,4.37
2023-04-15T17:02:04.872Z,5.20
2023-04-15T17:04:33.011Z,3.70
2023-04-15T17:07:00.884Z,3.90
2023-04-15T17:09:30.066Z,6.20
2023-04-15T17:11:57.826Z,5.30
2023-04-15T17:14:25.973Z,6.50
2023-04-15T17:16:53.737Z,4.77
2023-04-15T17:19:21.517Z,3.60
2023-04-15T17:21:49.339Z,4.23
2023-04-15T17:24:17.129Z,3.33
2023-04-15T17:26:46.882Z,4.87
2023-04-15T17:29:14.673Z,3.00
2023-04-15T17:31:42.769Z,3.17
2023-04-15T17:34:12.151Z,4.50
2023-04-15T17:36:41.191Z,5.47
2023-04-15T17:39:08.996Z,8.90
2023-04-15T17:41:36.796Z,12.37
2023-04-15T17:44:06.115Z,9.63
2023-04-15T17:46:34.069Z,7.03
2023-04-15T17:49:02.606Z,6.50
2023-04-15T17:51:30.453Z,4.70
2023-04-15T17:53:58.446Z,8.07
2023-04-15T17:56:28.519Z,4.07
2023-04-15T17:58:58.318Z,4.53
2023-04-15T18:01:27.544Z,2.70
2023-04-15T18:03:55.585Z,6.27
2023-04-15T18:06:23.447Z,2.00
2023-04-15T18:08:51.226Z,3.90
2023-04-15T18:11:19.259Z,2.83
2023-04-15T18:13:47.031Z,3.03
2023-04-15T18:16:14.832Z,7.10
2023-04-15T18:18:44.046Z,3.50
2023-04-15T18:21:13.496Z,7.97
2023-04-15T18:23:41.646Z,5.23
2023-04-15T18:26:09.481Z,4.93
2023-04-15T18:28:38.695Z,4.30
2023-04-15T18:31:07.185Z,3.20
2023-04-15T18:33:35.894Z,3.40
2023-04-15T18:36:05.374Z,6.20
2023-04-15T18:38:33.332Z,4.00
2023-04-15T18:41:01.127Z,4.33
2023-04-15T18:43:28.985Z,3.50
2023-04-15T18:45:56.823Z,3.03
2023-04-15T18:48:24.611Z,2.40
2023-04-15T18:50:54.021Z,3.20
2023-04-15T18:53:23.197Z,6.30
2023-04-15T18:55:51.239Z,4.67
2023-04-15T18:58:19.010Z,2.20
2023-04-15T19:00:46.808Z,5.77
2023-04-15T19:03:14.718Z,3.30
2023-04-15T19:05:42.681Z,2.97
2023-04-15T19:08:11.136Z,2.97
2023-04-15T19:10:40.320Z,3.60
2023-04-15T19:13:08.106Z,5.40
2023-04-15T19:15:35.919Z,4.40
2023-04-15T19:18:05.294Z,4.20
2023-04-15T19:20:36.209Z,3.40
2023-04-15T19:23:06.525Z,4.60
2023-04-15T19:25:34.358Z,3.40
2023-04-15T19:28:03.510Z,4.13
2023-04-15T19:30:32.919Z,2.93
2023-04-15T19:33:00.805Z,2.57
2023-04-15T19:35:28.732Z,3.30
2023-04-15T19:37:56.520Z,2.77
2023-04-15T19:40:24.303Z,5.90
2023-04-15T19:42:52.048Z,5.10
2023-04-15T19:45:21.200Z,3.83
2023-04-15T19:47:49.157Z,3.10
2023-04-15T19:50:17.035Z,5.10
2023-04-15T19:52:44.945Z,3.77
2023-04-15T19:55:12.711Z,2.90
2023-04-15T19:57:40.841Z,5.10
2023-04-15T20:00:09.954Z,5.90
2023-04-15T20:02:39.199Z,3.23
2023-04-15T20:05:09.712Z,3.70
2023-04-15T20:07:37.900Z,5.53
2023-04-15T20:10:10.742Z,5.60
2023-04-15T20:12:51.403Z,5.47
2023-04-15T20:15:22.486Z,3.90
2023-04-15T20:17:51.727Z,5.13
2023-04-15T20:20:19.614Z,4.53
2023-04-15T20:22:47.402Z,3.37
2023-04-15T20:25:15.804Z,4.17
2023-04-15T20:27:43.621Z,3.63
2023-04-15T20:30:12.113Z,4.37
2023-04-15T20:32:39.969Z,3.30
2023-04-15T20:35:09.545Z,2.80
2023-04-15T20:37:40.371Z,2.70
2023-04-15T20:40:09.402Z,2.50
2023-04-15T20:42:37.177Z,2.10
2023-04-15T20:45:06.994Z,2.40
2023-04-15T20:47:34.822Z,1.80
2023-04-15T20:50:02.692Z,2.50
2023-04-15T20:52:31.815Z,2.60
2023-04-15T20:54:59.585Z,2.50
2023-04-15T20:57:28.663Z,2.60
2023-04-15T20:59:56.656Z,3.50
2023-04-15T21:02:24.687Z,2.37
2023-04-15T21:04:52.644Z,2.43
2023-04-15T21:07:20.436Z,2.70
2023-04-15T21:09:49.567Z,4.20
2023-04-15T21:12:17.376Z,3.77
2023-04-15T21:14:45.167Z,2.80
2023-04-15T21:17:13.051Z,2.90
2023-04-15T21:19:41.329Z,2.47
2023-04-15T21:22:09.298Z,2.63
2023-04-15T21:24:37.109Z,3.00
2023-04-15T21:27:06.310Z,4.90
2023-04-15T21:29:34.167Z,2.90
2023-04-15T21:32:02.077Z,3.47
2023-04-15T21:34:29.920Z,3.80
2023-04-15T21:36:57.714Z,3.97
2023-04-15T21:39:25.795Z,3.53
2023-04-15T21:41:53.584Z,3.13
2023-04-15T21:44:22.741Z,3.30
2023-04-15T21:46:51.029Z,4.33
2023-04-15T21:49:20.210Z,3.23
2023-04-15T21:51:48.448Z,3.33
2023-04-15T21:54:16.298Z,3.83
2023-04-15T21:56:44.097Z,4.03
2023-04-15T21:59:11.868Z,3.70
2023-04-15T22:01:41.063Z,5.67
2023-04-15T22:04:10.817Z,5.30
2023-04-15T22:06:39.259Z,5.30
2023-04-15T22:09:07.155Z,5.10
2023-04-15T22:11:34.895Z,6.17
2023-04-15T22:14:02.682Z,6.80
2023-04-15T22:16:30.549Z,5.17
2023-04-15T22:18:59.759Z,5.07
2023-04-15T22:21:27.768Z,5.60
2023-04-15T22:24:39.302Z,5.80
2023-04-15T22:26:43.682Z,5.37
2023-04-15T22:29:11.661Z,7.33
2023-04-15T22:31:39.460Z,5.97
2023-04-15T22:34:08.685Z,7.87
2023-04-15T22:36:36.488Z,8.03
2023-04-15T22:39:04.504Z,7.10
2023-04-15T22:41:32.503Z,7.67
2023-04-15T22:44:00.263Z,9.63
2023-04-15T22:46:28.115Z,8.50
2023-04-15T22:48:56.074Z,8.63
2023-04-15T22:51:26.907Z,7.13
2023-04-15T22:53:55.377Z,7.37
2023-04-15T22:56:24.039Z,11.37
2023-04-15T22:58:51.923Z,9.33
2023-04-15T23:01:21.073Z,10.40
2023-04-15T23:03:57.510Z,10.33
2023-04-15T23:06:37.363Z,8.90
2023-04-15T23:09:05.173Z,10.67
2023-04-15T23:11:32.971Z,11.70
2023-04-15T23:14:00.829Z,9.87
2023-04-15T23:16:28.733Z,10.53
2023-04-15T23:18:56.570Z,8.97
2023-04-15T23:21:26.062Z,10.60
2023-04-15T23:23:55.569Z,11.07
2023-04-15T23:26:23.380Z,8.80
2023-04-15T23:28:51.118Z,9.17
2023-04-15T23:31:18.896Z,11.13
2023-04-15T23:33:46.709Z,11.60
2023-04-15T23:36:14.480Z,11.93
2023-04-15T23:38:43.215Z,14.63
2023-04-15T23:41:12.433Z,13.90
2023-04-15T23:43:40.343Z,11.87
2023-04-15T23:46:08.470Z,12.10
2023-04-15T23:48:36.281Z,13.30
2023-04-15T23:51:04.290Z,12.67
2023-04-15T23:53:32.113Z,12.47
2023-04-15T23:55:59.886Z,14.53
2023-04-15T23:58:28.996Z,14.20
